DXB weather

Dubai International Airport
Dubai, Dubai Emirate, United Arab Emirates

Public forecast

Using degrees Celsius for public forecast. Weather courtesy of forecast.io.

Current aviation weather report (METAR) for Dubai International Airport

Retrieved 2020/04/04 02:00 UTC (15 minutes ago):

OMDB 040200Z 10002KT CAVOK 26/12 Q1011 NOSIG

Aviation forecast (TAF) for Dubai International Airport

Retrieved 2020-04-04 00:00 UTC (2 hours ago):

TAF OMDB 032302Z 0400/0506 11005KT 8000 NSC BECMG 0404/0406 18012KT BECMG 0408/0410 31012KT BECMG 0415/0417 11005KT